createdAt,value
2017-11-25T00:01:58.909Z,96.30
2017-11-25T00:04:25.966Z,96.30
2017-11-25T00:06:52.953Z,96.40
2017-11-25T00:09:19.751Z,96.30
2017-11-25T00:11:45.996Z,96.30
2017-11-25T00:14:12.279Z,96.40
2017-11-25T00:16:38.554Z,96.40
2017-11-25T00:19:05.617Z,96.30
2017-11-25T00:21:32.021Z,96.30
2017-11-25T00:23:59.267Z,96.40
2017-11-25T00:26:26.291Z,96.30
2017-11-25T00:28:52.610Z,96.30
2017-11-25T00:31:18.873Z,96.30
2017-11-25T00:33:45.119Z,96.30
2017-11-25T00:36:12.099Z,96.20
2017-11-25T00:38:38.345Z,96.10
2017-11-25T00:41:04.619Z,96.00
2017-11-25T00:43:31.621Z,96.10
2017-11-25T00:45:58.007Z,96.10
2017-11-25T00:48:24.532Z,96.10
2017-11-25T00:50:50.847Z,96.20
2017-11-25T00:53:17.869Z,96.20
2017-11-25T00:55:44.132Z,96.20
2017-11-25T00:58:10.373Z,96.30
2017-11-25T01:00:36.678Z,96.30
2017-11-25T01:03:02.946Z,96.20
2017-11-25T01:05:29.221Z,96.10
2017-11-25T01:07:55.570Z,96.10
2017-11-25T01:10:21.951Z,96.10
2017-11-25T01:12:48.206Z,96.10
2017-11-25T01:15:14.479Z,96.00
2017-11-25T01:17:40.774Z,95.90
2017-11-25T01:20:07.054Z,96.00
2017-11-25T01:22:33.290Z,96.10
2017-11-25T01:24:59.547Z,96.10
2017-11-25T01:27:25.781Z,96.10
2017-11-25T01:29:52.047Z,96.10
2017-11-25T01:32:19.062Z,96.20
2017-11-25T01:34:46.095Z,96.20
2017-11-25T01:37:13.311Z,96.20
2017-11-25T01:39:39.634Z,96.20
2017-11-25T01:42:05.895Z,96.30
2017-11-25T01:44:32.188Z,96.40
2017-11-25T01:46:58.524Z,96.40
2017-11-25T01:49:24.760Z,96.40
2017-11-25T01:51:51.040Z,96.30
2017-11-25T01:54:17.296Z,96.30
2017-11-25T01:56:44.321Z,96.30
2017-11-25T01:59:10.616Z,96.30
2017-11-25T02:01:37.001Z,96.30
2017-11-25T02:04:04.134Z,96.10
2017-11-25T02:06:31.216Z,96.10
2017-11-25T02:08:57.465Z,96.10
2017-11-25T02:11:23.735Z,96.10
2017-11-25T02:13:50.008Z,96.20
2017-11-25T02:16:17.526Z,96.20
2017-11-25T02:18:43.884Z,96.20
2017-11-25T02:21:10.706Z,96.30
2017-11-25T02:23:37.915Z,96.40
2017-11-25T02:26:04.403Z,96.40
2017-11-25T02:28:31.735Z,96.30
2017-11-25T02:30:58.775Z,96.30
2017-11-25T02:33:25.057Z,96.30
2017-11-25T02:35:51.312Z,96.30
2017-11-25T02:38:17.572Z,96.30
2017-11-25T02:40:46.703Z,96.30
2017-11-25T02:43:12.986Z,96.30
2017-11-25T02:45:39.257Z,96.20
2017-11-25T02:48:05.548Z,96.20
2017-11-25T02:50:31.847Z,96.20
2017-11-25T02:52:58.126Z,96.10
2017-11-25T02:55:25.192Z,96.10
2017-11-25T02:57:51.497Z,96.40
2017-11-25T03:00:18.525Z,96.00
2017-11-25T03:02:44.763Z,96.00
2017-11-25T03:05:11.027Z,96.20
2017-11-25T03:07:37.249Z,96.00
2017-11-25T03:10:03.575Z,96.00
2017-11-25T03:12:29.847Z,96.00
2017-11-25T03:14:56.149Z,96.00
2017-11-25T03:17:22.398Z,96.00
2017-11-25T03:19:49.196Z,96.00
2017-11-25T03:22:15.572Z,96.00
2017-11-25T03:24:41.916Z,96.00
2017-11-25T03:27:08.222Z,96.00
2017-11-25T03:29:34.593Z,96.00
2017-11-25T03:32:01.675Z,96.00
2017-11-25T03:34:27.968Z,96.00
2017-11-25T03:36:54.297Z,96.00
2017-11-25T03:39:20.673Z,96.00
2017-11-25T03:41:46.972Z,96.10
2017-11-25T03:44:14.024Z,96.10
2017-11-25T03:46:41.027Z,96.20
2017-11-25T03:49:07.299Z,96.20
2017-11-25T03:51:34.343Z,96.10
2017-11-25T03:54:01.340Z,96.10
2017-11-25T03:56:27.639Z,96.10
2017-11-25T03:58:55.335Z,96.10
2017-11-25T04:01:21.709Z,96.20
2017-11-25T04:03:48.779Z,96.00
2017-11-25T04:06:15.015Z,96.00
2017-11-25T04:08:41.624Z,96.00
2017-11-25T04:11:07.970Z,96.00
2017-11-25T04:13:34.217Z,96.00
2017-11-25T04:16:06.935Z,96.10
2017-11-25T04:18:33.322Z,96.10
2017-11-25T04:20:59.606Z,96.40
2017-11-25T04:23:26.823Z,96.20
2017-11-25T04:25:53.842Z,96.20
2017-11-25T04:28:20.138Z,96.20
2017-11-25T04:30:46.824Z,96.20
2017-11-25T04:33:13.253Z,96.40
2017-11-25T04:35:39.470Z,96.60
2017-11-25T04:38:07.339Z,96.50
2017-11-25T04:40:34.184Z,96.60
2017-11-25T04:43:00.457Z,96.50
2017-11-25T04:45:26.696Z,96.40
2017-11-25T04:47:53.129Z,96.50
2017-11-25T04:50:20.190Z,96.70
2017-11-25T04:52:47.267Z,96.70
2017-11-25T04:55:13.505Z,96.70
2017-11-25T04:57:40.810Z,96.70
2017-11-25T05:00:07.839Z,96.80
2017-11-25T05:02:34.224Z,96.80
2017-11-25T05:05:00.564Z,96.80
2017-11-25T05:07:28.094Z,96.90
2017-11-25T05:09:56.124Z,97.20
2017-11-25T05:12:22.469Z,97.20
2017-11-25T05:14:49.648Z,96.90
2017-11-25T05:17:18.268Z,96.90
2017-11-25T05:19:44.627Z,97.00
2017-11-25T05:22:10.944Z,96.90
2017-11-25T05:24:37.214Z,97.00
2017-11-25T05:27:04.365Z,96.90
2017-11-25T05:29:30.792Z,96.80
2017-11-25T05:31:57.204Z,96.90
2017-11-25T05:34:24.186Z,97.00
2017-11-25T05:36:50.462Z,96.90
2017-11-25T05:39:16.753Z,96.90
2017-11-25T05:41:43.101Z,96.80
2017-11-25T05:44:09.355Z,96.80
2017-11-25T05:46:35.572Z,96.70
2017-11-25T05:49:02.014Z,96.80
2017-11-25T05:51:28.348Z,96.90
2017-11-25T05:53:54.642Z,96.60
2017-11-25T05:56:20.899Z,96.60
2017-11-25T05:58:47.177Z,96.60
2017-11-25T06:01:13.425Z,96.60
2017-11-25T06:03:39.705Z,96.70
2017-11-25T06:06:06.755Z,96.90
2017-11-25T06:08:33.759Z,96.90
2017-11-25T06:11:00.031Z,96.90
2017-11-25T06:13:27.028Z,97.10
2017-11-25T06:15:53.305Z,97.10
2017-11-25T06:18:20.359Z,97.00
2017-11-25T06:20:47.335Z,97.00
2017-11-25T06:23:13.581Z,96.90
2017-11-25T06:25:39.917Z,96.90
2017-11-25T06:28:06.202Z,97.00
2017-11-25T06:30:32.480Z,97.10
2017-11-25T06:32:58.752Z,97.10
2017-11-25T06:35:27.688Z,97.30
2017-11-25T06:37:54.010Z,97.30
2017-11-25T06:40:20.315Z,97.30
2017-11-25T06:42:46.646Z,97.30
2017-11-25T06:45:13.613Z,97.50
2017-11-25T06:47:39.989Z,97.50
2017-11-25T06:50:07.718Z,97.30
2017-11-25T06:52:33.992Z,97.30
2017-11-25T06:55:01.019Z,97.10
2017-11-25T06:57:27.235Z,97.10
2017-11-25T06:59:53.531Z,97.20
2017-11-25T07:02:19.752Z,97.10
2017-11-25T07:04:46.019Z,97.00
2017-11-25T07:07:12.274Z,97.20
2017-11-25T07:09:38.511Z,97.00
2017-11-25T07:12:04.730Z,97.00
2017-11-25T07:14:31.067Z,97.00
2017-11-25T07:17:04.972Z,97.20
2017-11-25T07:19:32.014Z,97.30
2017-11-25T07:21:59.070Z,97.50
2017-11-25T07:24:26.160Z,97.50
2017-11-25T07:26:52.792Z,97.50
2017-11-25T07:29:19.083Z,97.60
2017-11-25T07:31:46.084Z,97.60
2017-11-25T07:34:12.456Z,97.40
2017-11-25T07:36:39.469Z,97.20
2017-11-25T07:39:05.760Z,97.20
2017-11-25T07:41:33.172Z,97.10
2017-11-25T07:44:00.241Z,97.10
2017-11-25T07:46:27.330Z,97.00
2017-11-25T07:48:53.692Z,97.00
2017-11-25T07:51:20.038Z,97.00
2017-11-25T07:53:47.247Z,96.90
2017-11-25T07:56:13.688Z,96.80
2017-11-25T07:58:39.999Z,97.00
2017-11-25T08:01:06.274Z,97.00
2017-11-25T08:03:33.102Z,97.10
2017-11-25T08:06:01.489Z,97.10
2017-11-25T08:08:30.080Z,97.10
2017-11-25T08:10:58.593Z,97.10
2017-11-25T08:13:27.289Z,97.00
2017-11-25T08:15:53.550Z,96.90
2017-11-25T08:18:19.945Z,96.80
2017-11-25T08:20:46.247Z,97.00
2017-11-25T08:23:12.652Z,97.10
2017-11-25T08:25:39.712Z,97.20
2017-11-25T08:28:05.930Z,97.20
2017-11-25T08:30:33.022Z,97.30
2017-11-25T08:33:00.032Z,97.20
2017-11-25T08:35:26.294Z,97.20
2017-11-25T08:37:52.594Z,97.30
2017-11-25T08:40:19.334Z,97.20
2017-11-25T08:42:47.310Z,97.30
2017-11-25T08:45:13.589Z,97.30
2017-11-25T08:47:39.948Z,97.20
2017-11-25T08:50:09.147Z,97.20
2017-11-25T08:52:36.239Z,97.40
2017-11-25T08:55:03.237Z,97.10
2017-11-25T08:57:30.855Z,97.10
2017-11-25T08:59:57.372Z,97.20
2017-11-25T09:02:24.407Z,97.30
2017-11-25T09:04:54.312Z,97.10
2017-11-25T09:10:05.131Z,96.40
2017-11-25T09:12:31.785Z,96.50
2017-11-25T09:14:59.311Z,96.80
2017-11-25T09:17:27.008Z,96.80
2017-11-25T09:19:53.258Z,96.80
2017-11-25T09:22:19.554Z,96.60
2017-11-25T09:24:45.940Z,96.90
2017-11-25T09:27:14.296Z,96.90
2017-11-25T09:29:41.312Z,96.60
2017-11-25T09:32:08.653Z,96.80
2017-11-25T09:34:35.095Z,96.80
2017-11-25T09:37:01.628Z,97.00
2017-11-25T09:39:28.805Z,97.00
2017-11-25T09:41:56.336Z,97.20
2017-11-25T09:44:22.685Z,97.20
2017-11-25T09:46:56.039Z,97.20
2017-11-25T09:49:23.085Z,97.20
2017-11-25T09:51:50.364Z,97.30
2017-11-25T09:54:16.727Z,97.20
2017-11-25T09:56:43.053Z,97.30
2017-11-25T09:59:09.339Z,97.10
2017-11-25T10:01:36.509Z,97.10
2017-11-25T10:04:02.969Z,97.00
2017-11-25T10:06:30.123Z,97.30
2017-11-25T10:08:57.349Z,96.90
2017-11-25T10:11:24.251Z,96.80
2017-11-25T10:13:50.756Z,96.60
2017-11-25T10:16:17.205Z,96.80
2017-11-25T10:18:43.562Z,96.90
2017-11-25T10:21:10.630Z,96.70
2017-11-25T10:23:36.854Z,96.70
2017-11-25T10:26:03.091Z,96.90
2017-11-25T10:28:29.604Z,96.90
2017-11-25T10:30:55.822Z,96.80
2017-11-25T10:33:22.915Z,96.70
2017-11-25T10:35:49.345Z,96.70
2017-11-25T10:38:15.620Z,96.70
2017-11-25T10:40:42.671Z,96.90
2017-11-25T10:43:09.787Z,96.80
2017-11-25T10:45:36.120Z,96.80
2017-11-25T10:48:02.495Z,96.70
2017-11-25T10:50:28.868Z,96.80
2017-11-25T10:52:55.243Z,96.70
2017-11-25T10:55:21.596Z,96.70
2017-11-25T10:57:47.959Z,96.70
2017-11-25T11:00:14.271Z,96.60
2017-11-25T11:02:40.532Z,96.60
2017-11-25T11:05:06.899Z,96.80
2017-11-25T11:07:34.827Z,96.50
2017-11-25T11:10:01.159Z,96.50
2017-11-25T11:12:27.510Z,96.30
2017-11-25T11:14:53.756Z,96.20
2017-11-25T11:17:20.152Z,96.10
2017-11-25T11:19:46.429Z,95.90
2017-11-25T11:22:12.706Z,96.00
2017-11-25T11:24:38.932Z,96.00
2017-11-25T11:27:05.190Z,96.20
2017-11-25T11:29:32.226Z,96.20
2017-11-25T11:31:59.655Z,95.70
2017-11-25T11:34:26.009Z,95.70
2017-11-25T11:36:52.714Z,96.00
2017-11-25T11:39:22.306Z,95.50
2017-11-25T11:41:48.886Z,95.50
2017-11-25T11:44:19.640Z,95.60
2017-11-25T11:46:52.548Z,95.60
2017-11-25T11:49:21.049Z,95.60
2017-11-25T11:51:47.409Z,95.50
2017-11-25T11:54:13.711Z,95.70
2017-11-25T11:56:40.031Z,95.20
2017-11-25T11:59:07.106Z,95.10
2017-11-25T12:01:33.399Z,95.10
2017-11-25T12:03:59.701Z,95.30
2017-11-25T12:06:26.053Z,95.40
2017-11-25T12:08:52.451Z,95.50
2017-11-25T12:11:19.476Z,95.30
2017-11-25T12:13:46.536Z,95.30
2017-11-25T12:16:12.952Z,95.50
2017-11-25T12:18:39.196Z,95.50
2017-11-25T12:21:05.414Z,95.70
2017-11-25T12:23:31.653Z,95.40
2017-11-25T12:25:57.866Z,95.10
2017-11-25T12:28:24.085Z,95.10
2017-11-25T12:30:50.347Z,95.10
2017-11-25T12:33:16.648Z,95.60
2017-11-25T12:35:42.853Z,95.30
2017-11-25T12:38:09.189Z,95.40
2017-11-25T12:40:37.300Z,95.00
2017-11-25T12:43:10.755Z,95.50
2017-11-25T12:45:37.040Z,95.40
2017-11-25T12:48:04.052Z,95.20
2017-11-25T12:50:30.367Z,95.20
2017-11-25T12:52:56.613Z,95.20
2017-11-25T12:55:22.839Z,95.50
2017-11-25T12:57:49.206Z,95.50
2017-11-25T13:00:16.304Z,95.50
2017-11-25T13:02:42.550Z,95.40
2017-11-25T13:05:08.776Z,95.40
2017-11-25T13:07:35.060Z,95.30
2017-11-25T13:10:01.370Z,94.90
2017-11-25T13:12:28.401Z,95.00
2017-11-25T13:14:54.704Z,94.90
2017-11-25T13:17:21.036Z,95.20
2017-11-25T13:19:47.291Z,95.10
2017-11-25T13:22:14.539Z,95.20
2017-11-25T13:24:43.329Z,95.20
2017-11-25T13:27:10.291Z,95.20
2017-11-25T13:29:36.618Z,95.20
2017-11-25T13:32:03.649Z,95.00
2017-11-25T13:34:30.674Z,95.20
2017-11-25T13:36:56.937Z,95.10
2017-11-25T13:39:23.175Z,95.10
2017-11-25T13:41:49.763Z,95.10
2017-11-25T13:44:15.990Z,95.00
2017-11-25T13:46:42.299Z,94.90
2017-11-25T13:49:08.535Z,95.30
2017-11-25T13:51:34.824Z,95.70
2017-11-25T13:54:01.841Z,95.70
2017-11-25T13:56:28.140Z,95.70
2017-11-25T13:58:55.380Z,95.80
2017-11-25T14:01:21.680Z,95.50
2017-11-25T14:03:47.961Z,95.10
2017-11-25T14:06:16.877Z,95.30
2017-11-25T14:08:43.912Z,95.50
2017-11-25T14:11:12.012Z,95.50
2017-11-25T14:13:39.281Z,95.70
2017-11-25T14:16:05.606Z,95.60
2017-11-25T14:18:33.109Z,95.60
2017-11-25T14:20:59.360Z,95.40
2017-11-25T14:23:26.163Z,95.50
2017-11-25T14:25:52.630Z,95.80
2017-11-25T14:28:18.868Z,95.20
2017-11-25T14:30:45.148Z,95.20
2017-11-25T14:33:11.533Z,95.30
2017-11-25T14:35:42.414Z,95.40
2017-11-25T14:38:19.237Z,95.40
2017-11-25T14:40:48.838Z,95.70
2017-11-25T14:43:15.335Z,95.80
2017-11-25T14:45:41.982Z,95.50
2017-11-25T14:48:08.368Z,95.60
2017-11-25T14:50:34.732Z,95.40
2017-11-25T14:53:02.257Z,95.60
2017-11-25T14:55:28.564Z,95.60
2017-11-25T14:57:55.007Z,95.40
2017-11-25T15:00:22.038Z,95.40
2017-11-25T15:02:48.317Z,95.40
2017-11-25T15:05:14.721Z,95.60
2017-11-25T15:07:41.952Z,95.60
2017-11-25T15:10:08.389Z,95.60
2017-11-25T15:12:35.433Z,95.80
2017-11-25T15:15:01.658Z,95.80
2017-11-25T15:17:27.983Z,95.40
2017-11-25T15:19:54.260Z,95.60
2017-11-25T15:22:20.555Z,95.30
2017-11-25T15:24:48.380Z,95.30
2017-11-25T15:27:14.645Z,95.30
2017-11-25T15:29:40.903Z,95.50
2017-11-25T15:32:07.916Z,95.70
2017-11-25T15:34:34.176Z,95.60
2017-11-25T15:37:02.308Z,95.70
2017-11-25T15:39:28.545Z,95.70
2017-11-25T15:41:56.427Z,95.80
2017-11-25T15:44:23.447Z,95.90
2017-11-25T15:46:49.730Z,95.90
2017-11-25T15:49:18.040Z,95.90
2017-11-25T15:51:44.349Z,95.90
2017-11-25T15:54:10.596Z,95.90
2017-11-25T15:56:36.845Z,95.60
2017-11-25T15:59:03.085Z,95.40
2017-11-25T16:01:29.307Z,95.50
2017-11-25T16:03:55.638Z,95.60
2017-11-25T16:06:21.915Z,95.90
2017-11-25T16:08:55.273Z,95.80
2017-11-25T16:11:22.273Z,95.60
2017-11-25T16:13:48.570Z,95.60
2017-11-25T16:16:15.584Z,96.00
2017-11-25T16:18:41.840Z,96.00
2017-11-25T16:21:08.954Z,95.50
2017-11-25T16:23:35.240Z,95.50
2017-11-25T16:26:01.471Z,95.70
2017-11-25T16:28:27.720Z,96.00
2017-11-25T16:30:54.011Z,96.10
2017-11-25T16:33:20.320Z,95.80
2017-11-25T16:35:47.292Z,95.80
2017-11-25T16:38:13.539Z,95.80
2017-11-25T16:40:41.561Z,96.00
2017-11-25T16:43:09.675Z,95.80
2017-11-25T16:45:37.537Z,95.70
2017-11-25T16:48:12.700Z,95.90
2017-11-25T16:50:40.005Z,95.90
2017-11-25T16:53:07.074Z,95.80
2017-11-25T16:55:33.666Z,95.80
2017-11-25T16:58:06.465Z,95.70
2017-11-25T17:00:32.783Z,95.90
2017-11-25T17:02:59.044Z,95.90
2017-11-25T17:05:25.297Z,96.20
2017-11-25T17:07:51.553Z,96.20
2017-11-25T17:10:17.931Z,96.10
2017-11-25T17:12:45.801Z,96.10
2017-11-25T17:15:16.989Z,96.10
2017-11-25T17:17:53.380Z,96.20
2017-11-25T17:20:20.346Z,96.20
2017-11-25T17:22:48.122Z,96.20
2017-11-25T17:25:15.510Z,96.20
2017-11-25T17:27:52.422Z,96.30
2017-11-25T17:30:18.638Z,96.10
2017-11-25T17:32:45.676Z,96.30
2017-11-25T17:35:11.911Z,96.30
2017-11-25T17:37:38.323Z,96.30
2017-11-25T17:40:04.549Z,96.10
2017-11-25T17:42:30.773Z,96.20
2017-11-25T17:44:57.115Z,96.20
2017-11-25T17:47:23.509Z,96.40
2017-11-25T17:49:49.767Z,96.50
2017-11-25T17:52:16.019Z,96.60
2017-11-25T17:54:43.161Z,96.70
2017-11-25T17:57:10.193Z,96.70
2017-11-25T17:59:36.952Z,96.70
2017-11-25T18:02:03.199Z,96.70
2017-11-25T18:04:30.156Z,97.00
2017-11-25T18:06:57.148Z,96.80
2017-11-25T18:09:37.753Z,96.80
2017-11-25T18:12:04.044Z,96.80
2017-11-25T18:14:30.276Z,96.70
2017-11-25T18:16:57.067Z,96.90
2017-11-25T18:19:24.861Z,96.60
2017-11-25T18:21:51.370Z,96.80
2017-11-25T18:24:17.643Z,96.70
2017-11-25T18:26:43.860Z,96.80
2017-11-25T18:29:11.894Z,96.80
2017-11-25T18:31:38.123Z,96.70
2017-11-25T18:34:04.594Z,96.60
2017-11-25T18:36:33.087Z,96.70
2017-11-25T18:39:15.207Z,96.70
2017-11-25T18:41:41.545Z,96.60
2017-11-25T18:44:08.507Z,96.30
2017-11-25T18:46:34.807Z,96.30
2017-11-25T18:49:02.924Z,96.30
2017-11-25T18:51:29.274Z,96.40
2017-11-25T18:53:55.519Z,96.30
2017-11-25T18:56:23.834Z,96.40
2017-11-25T18:58:53.400Z,96.50
2017-11-25T19:01:20.612Z,96.10
2017-11-25T19:03:46.905Z,96.00
2017-11-25T19:06:14.922Z,96.50
2017-11-25T19:08:45.223Z,96.40
2017-11-25T19:11:11.484Z,96.20
2017-11-25T19:13:37.852Z,96.00
2017-11-25T19:16:06.446Z,95.90
2017-11-25T19:18:33.438Z,95.60
2017-11-25T19:20:59.779Z,95.60
2017-11-25T19:23:26.228Z,95.90
2017-11-25T19:25:52.556Z,95.90
2017-11-25T19:28:18.757Z,95.40
2017-11-25T19:30:45.914Z,95.60
2017-11-25T19:33:12.231Z,95.60
2017-11-25T19:35:38.460Z,95.30
2017-11-25T19:38:08.102Z,95.20
2017-11-25T19:40:35.796Z,95.30
2017-11-25T19:43:04.356Z,95.80
2017-11-25T19:45:33.768Z,95.70
2017-11-25T19:48:09.711Z,95.40
2017-11-25T19:50:36.750Z,95.40
2017-11-25T19:53:03.091Z,95.10
2017-11-25T19:55:29.301Z,95.20
2017-11-25T19:57:55.706Z,95.20
2017-11-25T20:00:22.526Z,95.40
2017-11-25T20:02:59.452Z,95.60
2017-11-25T20:05:35.799Z,95.60
2017-11-25T20:08:02.171Z,95.70
2017-11-25T20:10:30.099Z,95.50
2017-11-25T20:12:56.418Z,95.60
2017-11-25T20:15:22.706Z,95.60
2017-11-25T20:17:50.022Z,95.60
2017-11-25T20:20:23.442Z,95.60
2017-11-25T20:22:49.840Z,95.60
2017-11-25T20:25:16.225Z,95.60
2017-11-25T20:27:42.846Z,95.60
2017-11-25T20:30:15.396Z,95.00
2017-11-25T20:32:42.931Z,95.10
2017-11-25T20:35:09.192Z,95.40
2017-11-25T20:40:33.000Z,95.30
2017-11-25T20:42:59.445Z,95.30
2017-11-25T20:45:26.625Z,95.20
2017-11-25T20:47:54.387Z,95.50
2017-11-25T20:50:21.292Z,95.50
2017-11-25T20:52:47.632Z,95.60
2017-11-25T20:55:15.842Z,95.90
2017-11-25T20:57:42.105Z,95.90
2017-11-25T21:00:08.766Z,95.80
2017-11-25T21:02:39.288Z,95.80
2017-11-25T21:05:05.849Z,95.80
2017-11-25T21:07:34.154Z,95.90
2017-11-25T21:10:01.077Z,96.00
2017-11-25T21:12:27.444Z,96.20
2017-11-25T21:14:53.719Z,96.10
2017-11-25T21:17:20.807Z,96.00
2017-11-25T21:19:49.217Z,96.00
2017-11-25T21:22:16.611Z,96.10
2017-11-25T21:24:43.802Z,96.00
2017-11-25T21:27:10.065Z,96.00
2017-11-25T21:29:36.360Z,96.10
2017-11-25T21:32:02.732Z,96.00
2017-11-25T21:34:29.894Z,95.80
2017-11-25T21:36:56.861Z,95.80
2017-11-25T21:39:23.125Z,95.80
2017-11-25T21:41:53.257Z,95.80
2017-11-25T21:44:19.547Z,95.90
2017-11-25T21:46:45.932Z,96.00
2017-11-25T21:49:14.165Z,95.80
2017-11-25T21:51:42.620Z,95.90
2017-11-25T21:54:08.989Z,96.00
2017-11-25T21:56:38.077Z,96.10
2017-11-25T21:59:13.225Z,95.90
2017-11-25T22:01:39.874Z,96.00
2017-11-25T22:04:06.161Z,96.10
2017-11-25T22:06:32.410Z,96.20
2017-11-25T22:08:59.945Z,96.40
2017-11-25T22:11:26.358Z,96.30
2017-11-25T22:13:52.727Z,96.40
2017-11-25T22:16:21.279Z,96.50
2017-11-25T22:18:52.291Z,96.50
2017-11-25T22:21:23.065Z,96.70
2017-11-25T22:23:49.641Z,96.70
2017-11-25T22:26:18.891Z,96.60
2017-11-25T22:28:45.123Z,96.60
2017-11-25T22:31:12.148Z,96.60
2017-11-25T22:33:39.134Z,96.50
2017-11-25T22:36:05.423Z,96.50
2017-11-25T22:38:31.708Z,96.50
2017-11-25T22:40:57.939Z,96.50
2017-11-25T22:43:24.298Z,96.50
2017-11-25T22:45:50.654Z,96.50
2017-11-25T22:48:17.688Z,96.60
2017-11-25T22:50:43.977Z,96.50
2017-11-25T22:53:10.219Z,96.60
2017-11-25T22:55:37.445Z,96.50
2017-11-25T22:58:04.712Z,96.40
2017-11-25T23:00:31.197Z,96.40
2017-11-25T23:02:57.440Z,96.50
2017-11-25T23:05:23.686Z,96.40
2017-11-25T23:07:49.948Z,96.50
2017-11-25T23:10:16.956Z,96.50
2017-11-25T23:12:43.168Z,96.50
2017-11-25T23:15:09.389Z,96.40
2017-11-25T23:17:35.709Z,96.40
2017-11-25T23:20:01.940Z,96.30
2017-11-25T23:22:28.321Z,96.30
2017-11-25T23:24:54.760Z,96.20
2017-11-25T23:27:21.079Z,96.60
2017-11-25T23:29:47.295Z,96.20
2017-11-25T23:32:13.567Z,96.20
2017-11-25T23:34:40.555Z,96.30
2017-11-25T23:37:06.783Z,96.30
2017-11-25T23:39:33.072Z,96.40
2017-11-25T23:42:00.043Z,96.30
2017-11-25T23:44:26.273Z,96.30
2017-11-25T23:46:52.522Z,96.20
2017-11-25T23:49:18.782Z,96.30
2017-11-25T23:51:45.054Z,96.40
2017-11-25T23:54:11.540Z,96.40
2017-11-25T23:56:37.964Z,96.30
2017-11-25T23:59:04.992Z,96.30
